createdAt,value
2022-11-01T00:10:28.812Z,69.5184
2022-11-01T00:25:31.055Z,26.36905
2022-11-01T00:40:33.370Z,7.19156
2022-11-01T00:55:35.766Z,1.19859
2022-11-01T01:10:38.112Z,0
2022-11-01T01:25:40.348Z,0
2022-11-01T01:40:42.547Z,0
2022-11-01T01:55:44.810Z,0
2022-11-01T02:10:47.087Z,0
2022-11-01T02:25:49.357Z,0
2022-11-01T02:40:51.611Z,0
2022-11-01T02:55:54.041Z,0
2022-11-01T03:10:56.261Z,0
2022-11-01T03:25:58.561Z,0
2022-11-01T03:41:00.778Z,0
2022-11-01T03:56:03.098Z,0
2022-11-01T04:11:05.384Z,0
2022-11-01T04:26:07.789Z,0
2022-11-01T04:41:10.043Z,0
2022-11-01T04:56:12.271Z,0
2022-11-01T05:11:14.655Z,0
2022-11-01T05:26:16.930Z,0
2022-11-01T05:41:19.299Z,0
2022-11-01T05:56:21.541Z,0
2022-11-01T06:11:23.806Z,0
2022-11-01T06:26:26.111Z,0
2022-11-01T06:41:28.392Z,0
2022-11-01T06:56:30.626Z,0
2022-11-01T07:11:32.847Z,0
2022-11-01T07:26:35.022Z,0
2022-11-01T07:41:37.285Z,0
2022-11-01T07:56:39.492Z,0
2022-11-01T08:11:41.830Z,0
2022-11-01T08:26:44.089Z,0
2022-11-01T08:41:46.279Z,0
2022-11-01T08:56:48.546Z,0
2022-11-01T09:11:50.998Z,0
2022-11-01T09:26:53.288Z,0
2022-11-01T09:41:55.513Z,0
2022-11-01T09:56:57.758Z,0
2022-11-01T10:11:59.979Z,0
2022-11-01T10:27:02.519Z,0
2022-11-01T10:42:04.833Z,0
2022-11-01T10:57:07.213Z,0
2022-11-01T11:12:09.477Z,0
2022-11-01T11:27:11.792Z,0
2022-11-01T11:42:14.145Z,0
2022-11-01T11:57:16.468Z,0
2022-11-01T12:12:18.708Z,0
2022-11-01T12:27:21.112Z,0
2022-11-01T12:42:23.545Z,0
2022-11-01T12:57:25.836Z,0
2022-11-01T13:12:28.223Z,0
2022-11-01T13:27:30.668Z,0
2022-11-01T13:42:32.969Z,0
2022-11-01T13:57:35.274Z,0
2022-11-01T14:12:37.545Z,0
2022-11-01T14:27:39.845Z,1.19859
2022-11-01T14:42:42.191Z,8.39015
2022-11-01T14:57:44.515Z,16.7803
2022-11-01T15:12:47.953Z,29.96483
2022-11-01T15:27:50.469Z,64.72403
2022-11-01T15:42:52.820Z,94.68886
2022-11-01T15:57:55.109Z,145.02977
2022-11-01T16:12:57.380Z,263.69049
2022-11-01T16:27:59.654Z,413.51465
2022-11-01T16:43:02.024Z,490.22461
2022-11-01T16:58:04.598Z,556.14722
2022-11-01T17:13:07.191Z,497.41617
2022-11-01T17:28:09.614Z,544.16132
2022-11-01T17:43:11.907Z,491.42319
2022-11-01T17:58:14.311Z,611.28253
2022-11-01T18:13:16.744Z,530.97675
2022-11-01T18:28:19.043Z,632.85718
2022-11-01T18:43:21.392Z,749.12073
2022-11-01T18:58:23.658Z,997.22949
2022-11-01T19:13:25.984Z,1361.60181
2022-11-01T19:28:28.377Z,1187.80579
2022-11-01T19:43:30.696Z,1189.00439
2022-11-01T19:58:37.159Z,1222.56506
2022-11-01T20:13:41.285Z,1162.63538
2022-11-01T20:28:43.603Z,1147.05359
2022-11-01T20:43:45.990Z,1115.89026
2022-11-01T20:58:48.388Z,1144.65649
2022-11-01T21:13:50.712Z,1051.16614
2022-11-01T21:28:53.057Z,841.41241
2022-11-01T21:43:55.380Z,667.61639
2022-11-01T21:58:57.623Z,601.69379
2022-11-01T22:14:00.096Z,527.38098
2022-11-01T22:29:02.394Z,409.91885
2022-11-01T22:44:04.696Z,278.07361
2022-11-01T22:59:07.043Z,209.7538
2022-11-01T23:14:09.573Z,178.59038
2022-11-01T23:29:11.978Z,112.66776
2022-11-01T23:44:14.333Z,157.0157
2022-11-01T23:59:16.631Z,76.70996
